createdAt,value
2023-01-30T00:00:06.729Z,-1.60
2023-01-30T00:02:34.284Z,-1.60
2023-01-30T00:05:01.579Z,-1.60
2023-01-30T00:07:29.000Z,-1.70
2023-01-30T00:09:56.119Z,-1.70
2023-01-30T00:12:23.485Z,-1.70
2023-01-30T00:14:50.504Z,-1.70
2023-01-30T00:17:17.659Z,-1.80
2023-01-30T00:19:44.724Z,-1.80
2023-01-30T00:22:11.836Z,-1.80
2023-01-30T00:24:45.483Z,-1.80
2023-01-30T00:27:13.192Z,-1.80
2023-01-30T00:29:40.592Z,-1.90
2023-01-30T00:32:07.680Z,-1.90
2023-01-30T00:34:34.817Z,-1.90
2023-01-30T00:37:08.166Z,-1.90
2023-01-30T00:39:35.627Z,-1.90
2023-01-30T00:42:22.573Z,-1.90
2023-01-30T00:45:09.619Z,-1.90
2023-01-30T00:47:36.742Z,-2.00
2023-01-30T00:50:04.161Z,-2.00
2023-01-30T00:52:31.342Z,-2.00
2023-01-30T00:54:58.365Z,-2.00
2023-01-30T00:57:25.888Z,-2.00
2023-01-30T00:59:52.960Z,-2.00
2023-01-30T01:02:20.117Z,-2.00
2023-01-30T01:04:47.295Z,-2.00
2023-01-30T01:07:15.326Z,-2.00
2023-01-30T01:09:42.699Z,-2.00
2023-01-30T01:12:09.901Z,-2.00
2023-01-30T01:14:37.273Z,-2.10
2023-01-30T01:17:04.786Z,-2.10
2023-01-30T01:19:31.991Z,-2.20
2023-01-30T01:21:59.934Z,-2.20
2023-01-30T01:24:27.964Z,-2.20
2023-01-30T01:26:55.199Z,-2.20
2023-01-30T01:29:22.338Z,-2.20
2023-01-30T01:31:49.707Z,-2.30
2023-01-30T01:34:16.967Z,-2.30
2023-01-30T01:36:54.297Z,-2.20
2023-01-30T01:39:22.070Z,-2.20
2023-01-30T01:41:50.876Z,-2.30
2023-01-30T01:44:18.251Z,-2.30
2023-01-30T01:46:49.937Z,-2.30
2023-01-30T01:49:36.286Z,-2.30
2023-01-30T01:52:11.639Z,-2.30
2023-01-30T01:54:44.023Z,-2.40
2023-01-30T01:57:17.293Z,-2.40
2023-01-30T01:59:49.886Z,-2.40
2023-01-30T02:02:18.557Z,-2.40
2023-01-30T02:05:07.024Z,-2.40
2023-01-30T02:07:37.647Z,-2.40
2023-01-30T02:10:06.959Z,-2.40
2023-01-30T02:12:34.190Z,-2.40
2023-01-30T02:15:02.971Z,-2.30
2023-01-30T02:17:30.171Z,-2.30
2023-01-30T02:20:27.125Z,-2.40
2023-01-30T02:23:14.298Z,-2.40
2023-01-30T02:26:06.711Z,-2.40
2023-01-30T02:28:53.724Z,-2.40
2023-01-30T02:31:41.164Z,-2.40
2023-01-30T02:34:28.825Z,-2.30
2023-01-30T02:37:06.931Z,-2.30
2023-01-30T02:40:04.754Z,-2.30
2023-01-30T02:42:43.848Z,-2.30
2023-01-30T02:45:19.993Z,-2.30
2023-01-30T02:47:57.064Z,-2.40
2023-01-30T02:50:34.602Z,-2.40
2023-01-30T02:53:03.615Z,-2.40
2023-01-30T02:55:31.125Z,-2.50
2023-01-30T02:57:58.418Z,-2.50
2023-01-30T03:00:55.995Z,-2.60
2023-01-30T03:03:54.127Z,-2.60
2023-01-30T03:06:33.826Z,-2.70
2023-01-30T03:09:22.272Z,-2.70
2023-01-30T03:12:15.987Z,-2.70
2023-01-30T03:15:04.742Z,-2.70
2023-01-30T03:17:34.467Z,-2.60
2023-01-30T03:20:04.380Z,-2.60
2023-01-30T03:22:32.580Z,-2.60
2023-01-30T03:24:59.833Z,-2.60
2023-01-30T03:27:28.137Z,-2.60
2023-01-30T03:29:55.378Z,-2.70
2023-01-30T03:32:22.474Z,-2.70
2023-01-30T03:34:50.783Z,-2.60
2023-01-30T03:37:18.129Z,-2.60
2023-01-30T03:39:45.481Z,-2.70
2023-01-30T03:42:15.618Z,-2.70
2023-01-30T03:44:43.141Z,-2.80
2023-01-30T03:47:10.930Z,-2.70
2023-01-30T03:49:38.548Z,-2.80
2023-01-30T03:52:06.062Z,-2.80
2023-01-30T03:54:33.231Z,-2.80
2023-01-30T03:57:00.678Z,-2.90
2023-01-30T03:59:27.911Z,-2.90
2023-01-30T04:02:03.808Z,-3.00
2023-01-30T04:04:31.209Z,-3.00
2023-01-30T04:06:59.165Z,-3.00
2023-01-30T04:09:27.324Z,-3.00
2023-01-30T04:11:54.510Z,-3.00
2023-01-30T04:14:22.779Z,-3.00
2023-01-30T04:17:09.665Z,-3.00
2023-01-30T04:19:56.831Z,-3.00
2023-01-30T04:22:24.327Z,-3.00
2023-01-30T04:24:51.499Z,-3.00
2023-01-30T04:27:18.547Z,-3.10
2023-01-30T04:30:05.260Z,-3.10
2023-01-30T04:32:32.543Z,-3.10
2023-01-30T04:35:00.284Z,-3.10
2023-01-30T04:37:27.686Z,-3.20
2023-01-30T04:39:54.835Z,-3.20
2023-01-30T04:42:22.098Z,-3.20
2023-01-30T04:45:09.839Z,-3.10
2023-01-30T04:47:37.468Z,-3.10
2023-01-30T04:50:05.806Z,-3.00
2023-01-30T04:52:33.004Z,-3.00
2023-01-30T04:55:00.342Z,-3.00
2023-01-30T04:57:28.809Z,-3.00
2023-01-30T04:59:56.015Z,-3.00
2023-01-30T05:02:24.061Z,-2.90
2023-01-30T05:04:51.172Z,-2.80
2023-01-30T05:07:18.311Z,-2.80
2023-01-30T05:09:45.758Z,-2.70
2023-01-30T05:12:12.799Z,-2.70
2023-01-30T05:14:41.442Z,-2.60
2023-01-30T05:17:08.695Z,-2.60
2023-01-30T05:19:35.939Z,-2.60
2023-01-30T05:22:03.252Z,-2.50
2023-01-30T05:24:30.451Z,-2.50
2023-01-30T05:26:57.589Z,-2.50
2023-01-30T05:29:24.912Z,-2.50
2023-01-30T05:32:12.512Z,-2.50
2023-01-30T05:35:05.315Z,-2.50
2023-01-30T05:37:48.939Z,-2.50
2023-01-30T05:40:18.287Z,-2.50
2023-01-30T05:42:45.645Z,-2.50
2023-01-30T05:45:12.712Z,-2.40
2023-01-30T05:47:40.193Z,-2.40
2023-01-30T05:50:07.736Z,-2.30
2023-01-30T05:52:34.914Z,-2.30
2023-01-30T05:55:02.053Z,-2.30
2023-01-30T05:57:29.080Z,-2.40
2023-01-30T05:59:56.201Z,-2.40
2023-01-30T06:02:23.332Z,-2.50
2023-01-30T06:04:50.541Z,-2.40
2023-01-30T06:07:17.578Z,-2.40
2023-01-30T06:09:44.678Z,-2.30
2023-01-30T06:12:11.974Z,-2.30
2023-01-30T06:14:39.089Z,-2.30
2023-01-30T06:17:06.370Z,-2.30
2023-01-30T06:19:34.245Z,-2.40
2023-01-30T06:22:03.109Z,-2.40
2023-01-30T06:24:30.169Z,-2.50
2023-01-30T06:26:58.610Z,-2.50
2023-01-30T06:29:25.655Z,-2.50
2023-01-30T06:31:52.799Z,-2.50
2023-01-30T06:34:19.872Z,-2.40
2023-01-30T06:36:46.982Z,-2.40
2023-01-30T06:39:14.178Z,-2.40
2023-01-30T06:41:41.389Z,-2.30
2023-01-30T06:44:09.613Z,-2.30
2023-01-30T06:46:37.020Z,-2.30
2023-01-30T06:49:04.281Z,-2.20
2023-01-30T06:51:32.674Z,-2.20
2023-01-30T06:53:59.900Z,-2.20
2023-01-30T06:56:26.941Z,-2.10
2023-01-30T06:58:54.718Z,-2.10
2023-01-30T07:01:21.948Z,-2.10
2023-01-30T07:03:49.048Z,-2.10
2023-01-30T07:06:16.401Z,-2.00
2023-01-30T07:08:44.513Z,-2.10
2023-01-30T07:11:11.911Z,-2.00
2023-01-30T07:13:39.140Z,-1.90
2023-01-30T07:16:06.643Z,-1.90
2023-01-30T07:18:34.131Z,-1.90
2023-01-30T07:21:01.370Z,-1.90
2023-01-30T07:23:28.713Z,-1.80
2023-01-30T07:25:55.791Z,-1.70
2023-01-30T07:28:23.278Z,-1.70
2023-01-30T07:30:53.174Z,-1.60
2023-01-30T07:33:20.827Z,-1.60
2023-01-30T07:35:48.060Z,-1.60
2023-01-30T07:38:15.056Z,-1.60
2023-01-30T07:40:42.187Z,-1.60
2023-01-30T07:43:12.266Z,-1.50
2023-01-30T07:45:44.917Z,-1.40
2023-01-30T07:48:15.076Z,-1.40
2023-01-30T07:50:42.358Z,-1.40
2023-01-30T07:53:12.475Z,-1.50
2023-01-30T07:55:39.926Z,-1.50
2023-01-30T07:58:07.404Z,-1.40
2023-01-30T08:00:35.445Z,-1.50
2023-01-30T08:03:02.613Z,-1.50
2023-01-30T08:05:29.739Z,-1.60
2023-01-30T08:07:57.710Z,-1.50
2023-01-30T08:10:25.495Z,-1.40
2023-01-30T08:12:52.756Z,-1.40
2023-01-30T08:15:21.931Z,-1.30
2023-01-30T08:17:58.195Z,-1.30
2023-01-30T08:20:26.933Z,-1.20
2023-01-30T08:22:54.755Z,-1.20
2023-01-30T08:25:22.139Z,-1.20
2023-01-30T08:27:49.404Z,-1.10
2023-01-30T08:30:17.235Z,-1.20
2023-01-30T08:32:45.064Z,-1.20
2023-01-30T08:35:12.343Z,-1.10
2023-01-30T08:37:40.939Z,-1.20
2023-01-30T08:40:09.262Z,-1.20
2023-01-30T08:42:36.338Z,-1.10
2023-01-30T08:45:03.622Z,-1.10
2023-01-30T08:47:32.676Z,-1.00
2023-01-30T08:49:59.966Z,-1.00
2023-01-30T08:52:27.128Z,-1.00
2023-01-30T08:54:54.245Z,-1.00
2023-01-30T08:57:21.343Z,-1.00
2023-01-30T08:59:51.329Z,-1.00
2023-01-30T09:02:19.314Z,-0.90
2023-01-30T09:04:46.609Z,-0.90
2023-01-30T09:07:13.764Z,-0.90
2023-01-30T09:09:40.862Z,-0.90
2023-01-30T09:12:07.967Z,-0.80
2023-01-30T09:14:35.175Z,-0.80
2023-01-30T09:17:02.423Z,-0.80
2023-01-30T09:19:29.612Z,-0.80
2023-01-30T09:21:57.136Z,-0.70
2023-01-30T09:24:26.995Z,-0.70
2023-01-30T09:26:57.201Z,-0.60
2023-01-30T09:29:25.356Z,-0.60
2023-01-30T09:31:52.895Z,-0.50
2023-01-30T09:34:20.264Z,-0.50
2023-01-30T09:36:47.556Z,-0.20
2023-01-30T09:39:14.725Z,0.00
2023-01-30T09:41:43.080Z,0.10
2023-01-30T09:44:17.646Z,0.20
2023-01-30T09:47:01.337Z,0.50
2023-01-30T09:49:42.120Z,0.90
2023-01-30T09:52:27.099Z,0.90
2023-01-30T09:55:03.286Z,1.30
2023-01-30T09:57:31.238Z,1.70
2023-01-30T10:00:13.186Z,2.10
2023-01-30T10:02:52.046Z,2.40
2023-01-30T10:05:19.934Z,2.80
2023-01-30T10:07:58.212Z,3.10
2023-01-30T10:10:43.402Z,3.10
2023-01-30T10:13:29.805Z,2.80
2023-01-30T10:16:24.871Z,2.50
2023-01-30T10:19:16.062Z,2.20
2023-01-30T10:22:00.542Z,2.10
2023-01-30T10:24:27.939Z,2.40
2023-01-30T10:26:57.051Z,2.40
2023-01-30T10:29:32.343Z,2.40
2023-01-30T10:32:21.860Z,2.60
2023-01-30T10:34:55.002Z,3.20
2023-01-30T10:37:27.081Z,3.40
2023-01-30T10:40:34.142Z,3.80
2023-01-30T10:43:08.429Z,3.90
2023-01-30T10:45:42.514Z,3.80
2023-01-30T10:48:21.290Z,3.50
2023-01-30T10:50:58.646Z,3.10
2023-01-30T10:53:36.736Z,3.00
2023-01-30T10:56:21.027Z,2.90
2023-01-30T10:58:53.476Z,2.40
2023-01-30T11:01:44.072Z,2.30
2023-01-30T11:04:21.068Z,2.50
2023-01-30T11:06:48.966Z,2.90
2023-01-30T11:09:16.213Z,3.10
2023-01-30T11:11:55.662Z,3.10
2023-01-30T11:14:22.817Z,3.20
2023-01-30T11:16:54.080Z,3.10
2023-01-30T11:19:31.394Z,3.20
2023-01-30T11:22:02.900Z,2.60
2023-01-30T11:24:32.266Z,2.30
2023-01-30T11:27:12.001Z,2.10
2023-01-30T11:29:40.483Z,1.90
2023-01-30T11:32:16.294Z,1.70
2023-01-30T11:34:44.598Z,1.80
2023-01-30T11:37:33.449Z,1.90
2023-01-30T11:40:07.439Z,2.20
2023-01-30T11:42:34.801Z,2.40
2023-01-30T11:45:16.651Z,2.50
2023-01-30T11:48:01.789Z,2.50
2023-01-30T11:50:56.015Z,2.40
2023-01-30T11:53:31.251Z,2.50
2023-01-30T11:56:08.572Z,2.50
2023-01-30T11:58:39.744Z,2.50
2023-01-30T12:01:10.880Z,2.50
2023-01-30T12:03:50.238Z,2.50
2023-01-30T12:06:36.861Z,2.50
2023-01-30T12:09:05.072Z,2.20
2023-01-30T12:11:42.307Z,2.20
2023-01-30T12:14:19.717Z,2.10
2023-01-30T12:16:58.931Z,1.90
2023-01-30T12:19:28.185Z,1.70
2023-01-30T12:22:01.106Z,1.60
2023-01-30T12:24:34.964Z,1.90
2023-01-30T12:27:25.823Z,2.40
2023-01-30T12:29:52.958Z,2.90
2023-01-30T12:32:23.724Z,3.10
2023-01-30T12:34:51.207Z,3.50
2023-01-30T12:37:43.471Z,3.70
2023-01-30T12:40:31.002Z,3.70
2023-01-30T12:43:19.073Z,3.90
2023-01-30T12:46:15.056Z,4.10
2023-01-30T12:48:48.315Z,4.20
2023-01-30T12:51:24.311Z,4.10
2023-01-30T12:54:12.523Z,3.80
2023-01-30T12:57:00.288Z,3.60
2023-01-30T12:59:50.787Z,3.40
2023-01-30T13:02:28.708Z,3.40
2023-01-30T13:05:21.718Z,3.50
2023-01-30T13:07:51.092Z,3.50
2023-01-30T13:10:27.397Z,3.70
2023-01-30T13:13:04.044Z,3.80
2023-01-30T13:15:38.104Z,3.90
2023-01-30T13:18:28.111Z,3.90
2023-01-30T13:21:00.524Z,4.00
2023-01-30T13:23:34.884Z,4.20
2023-01-30T13:26:12.023Z,4.30
2023-01-30T13:28:46.947Z,4.10
2023-01-30T13:31:21.677Z,4.00
2023-01-30T13:33:58.217Z,4.10
2023-01-30T13:36:33.141Z,4.00
2023-01-30T13:39:06.011Z,3.90
2023-01-30T13:41:40.691Z,4.00
2023-01-30T13:44:18.574Z,4.10
2023-01-30T13:46:47.492Z,4.10
2023-01-30T13:49:36.961Z,4.10
2023-01-30T13:52:15.633Z,4.20
2023-01-30T13:54:54.589Z,4.00
2023-01-30T13:57:30.219Z,4.00
2023-01-30T14:00:27.043Z,3.90
2023-01-30T14:03:12.204Z,3.90
2023-01-30T14:06:01.701Z,3.90
2023-01-30T14:08:33.770Z,3.90
2023-01-30T14:11:01.596Z,3.80
2023-01-30T14:13:30.662Z,3.90
2023-01-30T14:16:05.463Z,3.80
2023-01-30T14:18:36.582Z,3.80
2023-01-30T14:21:22.738Z,3.80
2023-01-30T14:24:02.566Z,3.80
2023-01-30T14:26:50.995Z,3.90
2023-01-30T14:29:38.052Z,3.80
2023-01-30T14:32:13.878Z,3.80
2023-01-30T14:34:43.279Z,3.80
2023-01-30T14:37:27.332Z,3.70
2023-01-30T14:39:56.585Z,3.70
2023-01-30T14:42:26.157Z,3.70
2023-01-30T14:45:00.065Z,3.60
2023-01-30T14:47:34.436Z,3.50
2023-01-30T14:50:21.063Z,3.50
2023-01-30T14:52:50.657Z,3.50
2023-01-30T14:55:23.795Z,3.50
2023-01-30T14:58:02.787Z,3.40
2023-01-30T15:00:40.138Z,3.40
2023-01-30T15:03:17.234Z,3.40
2023-01-30T15:05:46.106Z,3.30
2023-01-30T15:08:13.628Z,3.30
2023-01-30T15:10:59.734Z,3.30
2023-01-30T15:13:41.698Z,3.20
2023-01-30T15:16:19.520Z,3.10
2023-01-30T15:19:16.151Z,3.10
2023-01-30T15:22:07.657Z,3.00
2023-01-30T15:25:08.098Z,3.00
2023-01-30T15:27:52.101Z,3.00
2023-01-30T15:30:23.144Z,2.80
2023-01-30T15:33:08.100Z,2.80
2023-01-30T15:35:35.223Z,2.70
2023-01-30T15:38:02.882Z,2.60
2023-01-30T15:40:30.791Z,2.60
2023-01-30T15:43:01.753Z,2.50
2023-01-30T15:45:55.096Z,2.40
2023-01-30T15:48:29.744Z,2.30
2023-01-30T15:50:58.859Z,2.20
2023-01-30T15:53:31.413Z,2.20
2023-01-30T15:56:01.878Z,2.20
2023-01-30T15:58:30.469Z,2.20
2023-01-30T16:01:00.876Z,2.10
2023-01-30T16:03:34.385Z,2.10
2023-01-30T16:06:01.739Z,2.10
2023-01-30T16:08:30.771Z,2.10
2023-01-30T16:10:58.194Z,2.10
2023-01-30T16:13:25.429Z,2.10
2023-01-30T16:15:57.304Z,2.00
2023-01-30T16:18:24.869Z,2.00
2023-01-30T16:21:02.519Z,2.00
2023-01-30T16:23:36.953Z,1.90
2023-01-30T16:26:08.979Z,1.90
2023-01-30T16:28:36.544Z,1.90
2023-01-30T16:31:07.492Z,1.90
2023-01-30T16:33:36.989Z,1.80
2023-01-30T16:36:06.079Z,1.80
2023-01-30T16:38:44.859Z,1.80
2023-01-30T16:41:33.235Z,1.80
2023-01-30T16:44:20.293Z,1.70
2023-01-30T16:47:07.709Z,1.70
2023-01-30T16:49:36.025Z,1.70
2023-01-30T16:52:22.997Z,1.60
2023-01-30T16:54:53.416Z,1.60
2023-01-30T16:57:43.645Z,1.70
2023-01-30T17:00:33.829Z,1.70
2023-01-30T17:03:05.466Z,1.70
2023-01-30T17:05:42.656Z,1.70
2023-01-30T17:08:30.670Z,1.60
2023-01-30T17:11:02.955Z,1.70
2023-01-30T17:13:34.701Z,1.80
2023-01-30T17:16:27.732Z,1.80
2023-01-30T17:18:58.322Z,1.80
2023-01-30T17:21:30.592Z,1.80
2023-01-30T17:24:06.190Z,1.70
2023-01-30T17:26:33.961Z,1.70
2023-01-30T17:29:01.225Z,1.60
2023-01-30T17:31:28.824Z,1.60
2023-01-30T17:33:56.304Z,1.70
2023-01-30T17:36:29.661Z,1.70
2023-01-30T17:38:58.925Z,1.70
2023-01-30T17:41:30.908Z,1.60
2023-01-30T17:43:58.600Z,1.60
2023-01-30T17:46:40.178Z,1.60
2023-01-30T17:49:19.149Z,1.40
2023-01-30T17:51:46.904Z,1.40
2023-01-30T17:54:16.550Z,1.30
2023-01-30T17:56:45.983Z,1.30
2023-01-30T17:59:17.280Z,1.20
2023-01-30T18:01:46.887Z,1.10
2023-01-30T18:04:14.524Z,1.10
2023-01-30T18:06:45.625Z,1.00
2023-01-30T18:09:18.819Z,1.00
2023-01-30T18:11:46.627Z,0.90
2023-01-30T18:14:14.247Z,0.80
2023-01-30T18:16:41.924Z,0.70
2023-01-30T18:19:12.922Z,0.70
2023-01-30T18:21:40.295Z,0.60
2023-01-30T18:24:08.275Z,0.50
2023-01-30T18:26:35.412Z,0.40
2023-01-30T18:29:02.981Z,0.40
2023-01-30T18:31:31.872Z,0.40
2023-01-30T18:33:59.460Z,0.50
2023-01-30T18:36:26.722Z,0.40
2023-01-30T18:38:54.680Z,0.40
2023-01-30T18:41:24.248Z,0.30
2023-01-30T18:43:57.419Z,0.30
2023-01-30T18:46:26.390Z,0.30
2023-01-30T18:48:55.236Z,0.20
2023-01-30T18:51:25.421Z,0.20
2023-01-30T18:53:53.943Z,0.20
2023-01-30T18:56:24.021Z,0.20
2023-01-30T18:58:53.004Z,0.10
2023-01-30T19:01:23.567Z,0.10
2023-01-30T19:03:54.820Z,0.10
2023-01-30T19:06:22.232Z,0.10
2023-01-30T19:08:49.570Z,0.10
2023-01-30T19:11:39.715Z,0.00
2023-01-30T19:14:08.617Z,0.00
2023-01-30T19:16:37.451Z,-0.10
2023-01-30T19:19:05.876Z,-0.20
2023-01-30T19:21:34.073Z,-0.30
2023-01-30T19:24:07.084Z,-0.30
2023-01-30T19:26:35.560Z,-0.40
2023-01-30T19:29:03.105Z,-0.50
2023-01-30T19:31:30.740Z,-0.50
2023-01-30T19:34:01.415Z,-0.50
2023-01-30T19:36:31.908Z,-0.50
2023-01-30T19:39:00.490Z,-0.50
2023-01-30T19:41:30.015Z,-0.50
2023-01-30T19:43:59.112Z,-0.40
2023-01-30T19:46:29.159Z,-0.40
2023-01-30T19:48:56.980Z,-0.40
2023-01-30T19:51:28.720Z,-0.50
2023-01-30T19:54:00.463Z,-0.60
2023-01-30T19:56:29.683Z,-0.60
2023-01-30T19:58:59.325Z,-0.70
2023-01-30T20:01:31.026Z,-0.70
2023-01-30T20:03:59.330Z,-0.80
2023-01-30T20:06:29.479Z,-0.80
2023-01-30T20:09:00.575Z,-0.90
2023-01-30T20:11:29.232Z,-0.90
2023-01-30T20:13:56.937Z,-0.80
2023-01-30T20:16:27.683Z,-0.90
2023-01-30T20:18:58.002Z,-1.00
2023-01-30T20:21:26.780Z,-1.00
2023-01-30T20:23:54.681Z,-1.00
2023-01-30T20:26:25.410Z,-1.00
2023-01-30T20:28:54.909Z,-1.00
2023-01-30T20:31:26.341Z,-0.90
2023-01-30T20:33:57.052Z,-1.00
2023-01-30T20:36:26.721Z,-0.90
2023-01-30T20:38:55.618Z,-0.90
2023-01-30T20:41:27.861Z,-0.90
2023-01-30T20:43:57.976Z,-0.80
2023-01-30T20:46:27.572Z,-0.80
2023-01-30T20:48:57.324Z,-0.80
2023-01-30T20:51:27.405Z,-0.80
2023-01-30T20:53:58.058Z,-0.80
2023-01-30T20:56:27.569Z,-0.80
2023-01-30T20:58:54.898Z,-0.80
2023-01-30T21:01:24.695Z,-0.80
2023-01-30T21:03:54.142Z,-0.80
2023-01-30T21:06:41.589Z,-0.90
2023-01-30T21:09:16.432Z,-0.90
2023-01-30T21:11:44.258Z,-1.00
2023-01-30T21:14:12.065Z,-1.00
2023-01-30T21:16:40.070Z,-1.10
2023-01-30T21:19:11.151Z,-1.10
2023-01-30T21:21:46.993Z,-1.00
2023-01-30T21:24:15.434Z,-1.00
2023-01-30T21:26:46.490Z,-1.00
2023-01-30T21:29:16.236Z,-1.00
2023-01-30T21:31:44.870Z,-1.10
2023-01-30T21:34:13.082Z,-1.10
2023-01-30T21:36:41.261Z,-1.10
2023-01-30T21:39:33.292Z,-1.20
2023-01-30T21:42:01.906Z,-1.30
2023-01-30T21:44:32.803Z,-1.30
2023-01-30T21:47:00.471Z,-1.30
2023-01-30T21:49:28.172Z,-1.30
2023-01-30T21:51:55.446Z,-1.30
2023-01-30T21:54:23.680Z,-1.30
2023-01-30T21:56:50.909Z,-1.40
2023-01-30T21:59:18.413Z,-1.40
2023-01-30T22:01:45.885Z,-1.40
2023-01-30T22:04:15.171Z,-1.40
2023-01-30T22:06:43.567Z,-1.50
2023-01-30T22:09:14.343Z,-1.40
2023-01-30T22:11:42.423Z,-1.40
2023-01-30T22:14:13.272Z,-1.50
2023-01-30T22:16:40.987Z,-1.30
2023-01-30T22:19:08.487Z,-1.20
2023-01-30T22:21:38.785Z,-1.20
2023-01-30T22:24:08.413Z,-1.20
2023-01-30T22:26:36.689Z,-1.20
2023-01-30T22:29:05.418Z,-1.20
2023-01-30T22:31:35.150Z,-1.30
2023-01-30T22:34:04.407Z,-1.30
2023-01-30T22:36:33.695Z,-1.40
2023-01-30T22:39:01.644Z,-1.40
2023-01-30T22:41:32.913Z,-1.30
2023-01-30T22:44:00.915Z,-1.40
2023-01-30T22:46:32.529Z,-1.30
2023-01-30T22:49:01.917Z,-1.30
2023-01-30T22:51:33.468Z,-1.30
2023-01-30T22:54:04.329Z,-1.30
2023-01-30T22:56:37.033Z,-1.20
2023-01-30T22:59:05.031Z,-1.10
2023-01-30T23:01:34.947Z,-1.10
2023-01-30T23:04:04.886Z,-1.20
2023-01-30T23:06:32.885Z,-1.30
2023-01-30T23:09:02.723Z,-1.30
2023-01-30T23:11:29.915Z,-1.40
2023-01-30T23:14:04.689Z,-1.50
2023-01-30T23:16:34.556Z,-1.50
2023-01-30T23:19:04.637Z,-1.50
2023-01-30T23:21:37.084Z,-1.60
2023-01-30T23:24:09.511Z,-1.60
2023-01-30T23:26:40.272Z,-1.60
2023-01-30T23:29:13.172Z,-1.40
2023-01-30T23:31:42.485Z,-1.40
2023-01-30T23:34:13.922Z,-1.30
2023-01-30T23:36:41.333Z,-1.30
2023-01-30T23:39:08.857Z,-1.20
2023-01-30T23:41:37.000Z,-1.10
2023-01-30T23:44:04.942Z,-1.10
2023-01-30T23:46:35.263Z,-1.00
2023-01-30T23:49:06.240Z,-1.00
2023-01-30T23:51:35.656Z,-1.00
2023-01-30T23:54:03.651Z,-1.00
2023-01-30T23:56:32.580Z,-0.90
2023-01-30T23:59:00.016Z,-0.90
